createdAt,value
2019-04-25T00:04:26.544Z,99.90
2019-04-25T00:09:29.659Z,99.90
2019-04-25T00:14:31.859Z,99.90
2019-04-25T00:19:33.418Z,99.90
2019-04-25T00:24:36.552Z,99.90
2019-04-25T00:29:37.754Z,99.90
2019-04-25T00:34:38.887Z,99.90
2019-04-25T00:39:41.214Z,99.90
2019-04-25T00:44:44.847Z,99.90
2019-04-25T00:49:46.118Z,99.90
2019-04-25T00:54:47.212Z,99.90
2019-04-25T01:00:02.007Z,99.90
2019-04-25T01:05:05.491Z,99.90
2019-04-25T01:10:07.202Z,99.90
2019-04-25T01:15:11.604Z,99.90
2019-04-25T01:20:13.956Z,99.90
2019-04-25T01:25:15.304Z,99.90
2019-04-25T01:30:18.895Z,99.90
2019-04-25T01:35:23.671Z,99.90
2019-04-25T01:40:38.819Z,99.90
2019-04-25T01:45:40.704Z,99.90
2019-04-25T01:50:43.663Z,99.90
2019-04-25T01:55:53.283Z,99.90
2019-04-25T02:00:50.383Z,99.90
2019-04-25T02:05:53.383Z,99.90
2019-04-25T02:10:58.145Z,99.90
2019-04-25T02:16:00.055Z,99.90
2019-04-25T02:21:01.678Z,99.90
2019-04-25T02:26:15.515Z,99.90
2019-04-25T02:31:08.868Z,99.90
2019-04-25T02:36:10.300Z,99.90
2019-04-25T02:41:11.390Z,99.90
2019-04-25T02:46:20.271Z,99.90
2019-04-25T02:51:32.072Z,99.90
2019-04-25T02:56:35.831Z,99.90
2019-04-25T03:01:36.281Z,99.90
2019-04-25T03:06:37.372Z,99.90
2019-04-25T03:11:38.971Z,99.90
2019-04-25T03:16:41.373Z,99.90
2019-04-25T03:21:55.037Z,99.90
2019-04-25T03:26:56.607Z,99.90
2019-04-25T03:31:57.801Z,99.90
2019-04-25T03:36:58.920Z,99.90
2019-04-25T03:42:00.011Z,99.90
2019-04-25T03:47:01.863Z,99.90
2019-04-25T03:52:05.267Z,99.90
2019-04-25T03:57:07.513Z,99.90
2019-04-25T04:02:09.123Z,99.90
2019-04-25T04:07:11.387Z,99.90
2019-04-25T04:12:14.771Z,99.90
2019-04-25T04:17:35.139Z,99.90
2019-04-25T04:22:40.977Z,99.90
2019-04-25T04:27:43.707Z,99.90
2019-04-25T04:32:45.062Z,99.90
2019-04-25T04:37:46.255Z,99.90
2019-04-25T04:42:47.347Z,99.90
2019-04-25T04:47:48.446Z,99.90
2019-04-25T04:52:49.535Z,99.90
2019-04-25T04:57:50.626Z,99.90
2019-04-25T05:02:53.631Z,99.90
2019-04-25T05:08:03.869Z,99.90
2019-04-25T05:13:05.032Z,99.90
2019-04-25T05:18:06.131Z,99.90
2019-04-25T05:23:08.911Z,99.90
2019-04-25T05:28:10.512Z,99.90
2019-04-25T05:33:11.621Z,99.90
2019-04-25T05:38:14.221Z,99.90
2019-04-25T05:43:16.350Z,99.90
2019-04-25T05:48:17.631Z,99.90
2019-04-25T05:53:18.727Z,99.90
2019-04-25T05:58:20.463Z,99.90
2019-04-25T06:03:21.739Z,99.90
2019-04-25T06:08:25.859Z,99.90
2019-04-25T06:13:29.672Z,99.90
2019-04-25T06:18:38.694Z,98.20
2019-04-25T06:23:50.679Z,95.70
2019-04-25T06:28:58.859Z,94.60
2019-04-25T06:33:54.798Z,91.70
2019-04-25T06:38:55.981Z,89.90
2019-04-25T06:43:58.992Z,89.10
2019-04-25T06:49:08.147Z,85.20
2019-04-25T06:54:09.256Z,80.60
2019-04-25T06:59:10.355Z,77.70
2019-04-25T07:04:11.855Z,74.70
2019-04-25T07:09:14.476Z,73.30
2019-04-25T07:14:15.959Z,68.50
2019-04-25T07:19:17.605Z,66.80
2019-04-25T07:24:19.994Z,66.20
2019-04-25T07:29:29.224Z,62.90
2019-04-25T07:34:30.920Z,62.10
2019-04-25T07:39:33.961Z,59.20
2019-04-25T07:44:47.853Z,59.20
2019-04-25T07:49:38.039Z,57.50
2019-04-25T07:54:39.148Z,55.90
2019-04-25T07:59:43.631Z,55.50
2019-04-25T08:04:44.809Z,55.20
2019-04-25T08:09:45.899Z,54.60
2019-04-25T08:14:48.997Z,54.50
2019-04-25T08:19:50.192Z,55.30
2019-04-25T08:24:51.607Z,53.90
2019-04-25T08:29:54.237Z,54.40
2019-04-25T08:34:55.533Z,54.40
2019-04-25T08:39:56.631Z,52.10
2019-04-25T08:44:57.720Z,51.30
2019-04-25T08:50:00.720Z,50.00
2019-04-25T08:55:04.633Z,48.40
2019-04-25T09:00:09.843Z,48.40
2019-04-25T09:05:19.812Z,44.30
2019-04-25T09:10:21.239Z,41.30
2019-04-25T09:15:23.986Z,40.60
2019-04-25T09:20:25.365Z,39.40
2019-04-25T09:25:26.466Z,36.60
2019-04-25T09:30:27.559Z,35.30
2019-04-25T09:35:29.083Z,32.90
2019-04-25T09:40:30.201Z,32.00
2019-04-25T09:45:36.355Z,32.70
2019-04-25T09:50:39.723Z,32.10
2019-04-25T09:55:54.132Z,32.70
2019-04-25T10:01:13.912Z,31.70
2019-04-25T10:06:16.381Z,32.30
2019-04-25T10:11:17.904Z,32.40
2019-04-25T10:16:18.998Z,31.70
2019-04-25T10:21:20.496Z,32.30
2019-04-25T10:26:22.198Z,30.80
2019-04-25T10:31:23.799Z,30.70
2019-04-25T10:36:25.422Z,30.00
2019-04-25T10:41:26.524Z,29.10
2019-04-25T10:46:27.729Z,28.90
2019-04-25T10:51:28.826Z,29.30
2019-04-25T10:56:30.024Z,28.90
2019-04-25T11:01:31.568Z,27.90
2019-04-25T11:06:33.636Z,27.50
2019-04-25T11:11:35.176Z,26.40
2019-04-25T11:16:36.258Z,26.70
2019-04-25T11:21:37.455Z,26.40
2019-04-25T11:26:38.768Z,26.00
2019-04-25T11:31:41.894Z,24.10
2019-04-25T11:36:43.927Z,26.40
2019-04-25T11:41:46.249Z,26.30
2019-04-25T11:46:48.635Z,26.00
2019-04-25T11:51:50.276Z,25.30
2019-04-25T11:56:51.644Z,22.50
2019-04-25T12:01:54.804Z,24.20
2019-04-25T12:06:55.937Z,24.20
2019-04-25T12:11:57.191Z,22.80
2019-04-25T12:16:58.435Z,23.00
2019-04-25T12:21:59.539Z,22.50
2019-04-25T12:27:01.136Z,22.50
2019-04-25T12:32:03.911Z,21.30
2019-04-25T12:37:05.359Z,22.80
2019-04-25T12:42:06.863Z,21.50
2019-04-25T12:47:09.861Z,22.40
2019-04-25T12:52:11.351Z,21.30
2019-04-25T12:57:14.163Z,20.80
2019-04-25T13:02:15.584Z,19.90
2019-04-25T13:07:16.794Z,19.20
2019-04-25T13:12:18.189Z,19.30
2019-04-25T13:17:19.932Z,20.10
2019-04-25T13:22:21.515Z,20.60
2019-04-25T13:27:24.510Z,19.30
2019-04-25T13:32:27.624Z,18.90
2019-04-25T13:37:28.741Z,19.80
2019-04-25T13:42:29.833Z,18.00
2019-04-25T13:47:31.932Z,16.90
2019-04-25T13:52:35.754Z,16.70
2019-04-25T13:57:36.369Z,18.30
2019-04-25T14:02:37.568Z,18.50
2019-04-25T14:07:38.763Z,19.30
2019-04-25T14:12:40.067Z,18.30
2019-04-25T14:17:44.740Z,17.20
2019-04-25T14:22:46.190Z,16.80
2019-04-25T14:27:47.296Z,15.40
2019-04-25T14:32:48.427Z,15.30
2019-04-25T14:37:49.539Z,16.80
2019-04-25T14:42:50.849Z,15.90
2019-04-25T14:47:52.033Z,15.80
2019-04-25T14:52:53.246Z,15.90
2019-04-25T14:57:55.456Z,15.90
2019-04-25T15:02:56.639Z,15.30
2019-04-25T15:07:57.738Z,15.50
2019-04-25T15:12:58.957Z,16.80
2019-04-25T15:18:00.164Z,17.60
2019-04-25T15:23:01.392Z,17.50
2019-04-25T15:28:02.807Z,17.30
2019-04-25T15:33:05.915Z,18.00
2019-04-25T15:38:25.687Z,19.00
2019-04-25T15:43:28.793Z,18.40
2019-04-25T15:48:29.982Z,17.30
2019-04-25T15:53:31.291Z,17.60
2019-04-25T15:58:32.392Z,17.60
2019-04-25T16:03:33.496Z,18.70
2019-04-25T16:08:35.130Z,19.70
2019-04-25T16:13:36.388Z,21.20
2019-04-25T16:18:37.868Z,22.60
2019-04-25T16:23:39.216Z,23.60
2019-04-25T16:28:40.306Z,24.10
2019-04-25T16:33:42.119Z,25.00
2019-04-25T16:38:43.402Z,26.00
2019-04-25T16:43:46.547Z,25.70
2019-04-25T16:48:47.656Z,25.70
2019-04-25T16:53:48.850Z,26.60
2019-04-25T16:58:50.042Z,26.80
2019-04-25T17:03:51.241Z,27.10
2019-04-25T17:08:52.347Z,27.70
2019-04-25T17:13:55.386Z,28.00
2019-04-25T17:18:58.407Z,28.20
2019-04-25T17:24:00.300Z,28.20
2019-04-25T17:29:03.648Z,28.30
2019-04-25T17:34:07.158Z,29.00
2019-04-25T17:39:10.180Z,28.60
2019-04-25T17:44:23.240Z,27.90
2019-04-25T17:49:24.378Z,29.00
2019-04-25T17:54:25.498Z,29.60
2019-04-25T17:59:26.617Z,30.30
2019-04-25T18:04:27.941Z,31.10
2019-04-25T18:09:29.049Z,30.50
2019-04-25T18:14:30.295Z,31.20
2019-04-25T18:19:36.381Z,31.70
2019-04-25T18:24:57.757Z,33.10
2019-04-25T18:29:59.005Z,34.40
2019-04-25T18:35:02.122Z,35.50
2019-04-25T18:40:06.661Z,36.30
2019-04-25T18:45:09.855Z,37.10
2019-04-25T18:50:13.075Z,37.60
2019-04-25T18:55:33.293Z,39.10
2019-04-25T19:00:39.229Z,40.30
2019-04-25T19:05:42.834Z,42.10
2019-04-25T19:10:45.101Z,43.80
2019-04-25T19:15:47.205Z,45.20
2019-04-25T19:20:48.648Z,46.90
2019-04-25T19:25:49.969Z,48.60
2019-04-25T19:30:51.699Z,50.10
2019-04-25T19:35:53.123Z,51.20
2019-04-25T19:40:59.159Z,53.50
2019-04-25T19:46:00.280Z,59.70
2019-04-25T19:51:01.367Z,69.00
2019-04-25T19:56:02.793Z,88.10
2019-04-25T20:01:03.964Z,99.90
2019-04-25T20:06:22.882Z,99.90
2019-04-25T20:11:31.714Z,99.90
2019-04-25T20:16:34.825Z,99.90
2019-04-25T20:21:35.968Z,99.90
2019-04-25T20:26:37.105Z,99.90
2019-04-25T20:31:38.236Z,99.90
2019-04-25T20:36:39.341Z,99.90
2019-04-25T20:41:40.579Z,99.90
2019-04-25T20:46:41.687Z,99.90
2019-04-25T20:51:42.798Z,99.90
2019-04-25T20:56:43.916Z,99.90
2019-04-25T21:01:45.140Z,99.90
2019-04-25T21:06:46.469Z,99.90
2019-04-25T21:11:47.667Z,99.90
2019-04-25T21:16:59.707Z,99.90
2019-04-25T21:22:01.143Z,99.90
2019-04-25T21:27:02.878Z,99.90
2019-04-25T21:32:04.590Z,99.90
2019-04-25T21:37:05.809Z,99.90
2019-04-25T21:42:12.106Z,99.90
2019-04-25T21:47:13.595Z,99.90
2019-04-25T21:52:15.101Z,99.90
2019-04-25T21:57:16.513Z,99.90
2019-04-25T22:02:18.690Z,99.90
2019-04-25T22:07:20.198Z,99.90
2019-04-25T22:12:22.010Z,99.90
2019-04-25T22:17:23.107Z,99.90
2019-04-25T22:22:24.605Z,99.90
2019-04-25T22:27:27.710Z,99.90
2019-04-25T22:32:39.584Z,99.90
2019-04-25T22:37:40.680Z,99.90
2019-04-25T22:42:42.088Z,99.90
2019-04-25T22:47:43.297Z,99.90
2019-04-25T22:52:44.376Z,99.90
2019-04-25T22:57:45.496Z,99.90
2019-04-25T23:02:54.411Z,99.90
2019-04-25T23:07:55.510Z,99.90
2019-04-25T23:12:57.151Z,99.90
2019-04-25T23:17:58.327Z,99.90
2019-04-25T23:22:59.506Z,99.90
2019-04-25T23:28:03.632Z,99.90
2019-04-25T23:33:06.678Z,99.90
2019-04-25T23:38:09.289Z,99.90
2019-04-25T23:43:11.755Z,99.90
2019-04-25T23:48:14.410Z,99.90
2019-04-25T23:53:15.656Z,99.90
2019-04-25T23:58:18.006Z,99.90
